createdAt,value
2022-12-20T00:01:42.981Z,-2.85
2022-12-20T00:04:45.194Z,-2.78
2022-12-20T00:07:47.392Z,-2.83
2022-12-20T00:10:49.599Z,-2.79
2022-12-20T00:13:51.957Z,-2.76
2022-12-20T00:16:54.170Z,-2.58
2022-12-20T00:19:56.305Z,-2.62
2022-12-20T00:22:58.468Z,-2.57
2022-12-20T00:26:04.428Z,-2.28
2022-12-20T00:29:07.132Z,-2.40
2022-12-20T00:32:09.486Z,-2.30
2022-12-20T00:35:12.145Z,-2.38
2022-12-20T00:38:14.826Z,-2.36
2022-12-20T00:41:21.995Z,-2.58
2022-12-20T00:44:24.186Z,-2.54
2022-12-20T00:47:26.378Z,-2.43
2022-12-20T00:50:28.583Z,-2.49
2022-12-20T00:53:31.296Z,-2.39
2022-12-20T00:56:33.587Z,-2.41
2022-12-20T00:59:35.780Z,-2.49
2022-12-20T01:02:38.309Z,-2.53
2022-12-20T01:05:40.807Z,-2.49
2022-12-20T01:08:43.063Z,-2.59
2022-12-20T01:11:45.286Z,-2.55
2022-12-20T01:14:47.536Z,-2.57
2022-12-20T01:17:50.040Z,-2.51
2022-12-20T01:21:01.812Z,-2.57
2022-12-20T01:24:04.386Z,-2.49
2022-12-20T01:27:06.598Z,-2.44
2022-12-20T01:30:09.552Z,-2.44
2022-12-20T01:33:11.943Z,-2.22
2022-12-20T01:36:16.786Z,-2.24
2022-12-20T01:39:19.255Z,-2.39
2022-12-20T01:42:21.431Z,-2.43
2022-12-20T01:45:32.768Z,-2.36
2022-12-20T01:48:35.202Z,-2.45
2022-12-20T01:51:43.357Z,-2.44
2022-12-20T01:54:48.180Z,-2.49
2022-12-20T01:57:51.789Z,-2.53
2022-12-20T02:00:54.062Z,-2.54
2022-12-20T02:03:56.454Z,-2.43
2022-12-20T02:06:59.313Z,-2.35
2022-12-20T02:10:02.200Z,-2.10
2022-12-20T02:13:13.044Z,-1.92
2022-12-20T02:16:22.915Z,-1.85
2022-12-20T02:20:02.879Z,-1.70
2022-12-20T02:23:22.933Z,-1.73
2022-12-20T02:26:43.225Z,-1.75
2022-12-20T02:30:05.190Z,-1.70
2022-12-20T02:33:09.229Z,-1.82
2022-12-20T02:36:11.503Z,-1.83
2022-12-20T02:39:16.242Z,-1.78
2022-12-20T02:42:24.027Z,-1.86
2022-12-20T02:45:35.178Z,-1.79
2022-12-20T02:48:37.862Z,-1.74
2022-12-20T02:51:42.166Z,-1.83
2022-12-20T02:54:44.378Z,-1.76
2022-12-20T02:58:00.362Z,-1.68
2022-12-20T03:01:08.051Z,-1.54
2022-12-20T03:04:10.941Z,-1.58
2022-12-20T03:07:16.674Z,-1.57
2022-12-20T03:10:19.552Z,-1.56
2022-12-20T03:13:23.465Z,-1.64
2022-12-20T03:16:25.748Z,-1.70
2022-12-20T03:19:28.049Z,-1.63
2022-12-20T03:22:30.890Z,-1.70
2022-12-20T03:25:33.185Z,-1.76
2022-12-20T03:28:35.366Z,-1.74
2022-12-20T03:31:37.925Z,-1.72
2022-12-20T03:34:40.118Z,-1.68
2022-12-20T03:37:43.055Z,-1.71
2022-12-20T03:40:45.335Z,-1.77
2022-12-20T03:43:48.581Z,-1.79
2022-12-20T03:46:50.996Z,-1.75
2022-12-20T03:49:53.391Z,-1.53
2022-12-20T03:52:55.592Z,-1.33
2022-12-20T03:55:57.903Z,-1.26
2022-12-20T03:59:00.208Z,-1.11
2022-12-20T04:02:03.278Z,-1.27
2022-12-20T04:05:06.133Z,-1.38
2022-12-20T04:08:08.400Z,-1.65
2022-12-20T04:11:17.309Z,-1.76
2022-12-20T04:14:19.495Z,-1.77
2022-12-20T04:17:21.736Z,-1.76
2022-12-20T04:20:23.988Z,-1.91
2022-12-20T04:23:26.198Z,-1.86
2022-12-20T04:26:28.773Z,-1.90
2022-12-20T04:29:31.830Z,-1.88
2022-12-20T04:32:34.010Z,-1.82
2022-12-20T04:35:37.447Z,-1.86
2022-12-20T04:38:39.643Z,-1.84
2022-12-20T04:41:42.015Z,-1.75
2022-12-20T04:44:44.223Z,-1.63
2022-12-20T04:47:46.372Z,-1.71
2022-12-20T04:50:49.513Z,-1.78
2022-12-20T04:53:51.791Z,-1.72
2022-12-20T04:56:53.944Z,-1.65
2022-12-20T04:59:56.153Z,-1.59
2022-12-20T05:02:58.889Z,-1.65
2022-12-20T05:06:01.235Z,-1.69
2022-12-20T05:09:03.660Z,-1.65
2022-12-20T05:12:06.034Z,-1.65
2022-12-20T05:15:08.787Z,-1.66
2022-12-20T05:18:11.065Z,-1.67
2022-12-20T05:21:32.184Z,-1.77
2022-12-20T05:24:52.763Z,-1.76
2022-12-20T05:27:55.085Z,-1.65
2022-12-20T05:30:57.468Z,-1.67
2022-12-20T05:34:00.355Z,-1.57
2022-12-20T05:37:02.528Z,-1.57
2022-12-20T05:40:05.337Z,-1.41
2022-12-20T05:43:07.787Z,-1.47
2022-12-20T05:46:10.811Z,-1.65
2022-12-20T05:49:13.016Z,-1.56
2022-12-20T05:52:15.178Z,-1.74
2022-12-20T05:55:17.663Z,-1.73
2022-12-20T05:58:20.209Z,-2.10
2022-12-20T06:01:22.521Z,-2.04
2022-12-20T06:04:24.925Z,-1.98
2022-12-20T06:07:29.149Z,-2.09
2022-12-20T06:10:32.171Z,-2.14
2022-12-20T06:13:34.412Z,-2.14
2022-12-20T06:16:36.880Z,-2.19
2022-12-20T06:19:41.645Z,-2.21
2022-12-20T06:22:46.828Z,-2.27
2022-12-20T06:25:49.096Z,-2.32
2022-12-20T06:28:56.953Z,-2.20
2022-12-20T06:31:59.357Z,-2.19
2022-12-20T06:35:01.638Z,-2.28
2022-12-20T06:38:03.901Z,-2.37
2022-12-20T06:41:06.096Z,-2.21
2022-12-20T06:44:08.304Z,-2.14
2022-12-20T06:47:10.511Z,-2.07
2022-12-20T06:50:12.755Z,-2.15
2022-12-20T06:53:15.105Z,-2.16
2022-12-20T06:56:17.352Z,-2.20
2022-12-20T06:59:19.659Z,-1.82
2022-12-20T07:02:22.101Z,-1.84
2022-12-20T07:05:26.215Z,-1.63
2022-12-20T07:08:28.416Z,-1.70
2022-12-20T07:11:30.624Z,-1.40
2022-12-20T07:14:32.933Z,-1.25
2022-12-20T07:17:35.164Z,-1.10
2022-12-20T07:20:37.659Z,-1.25
2022-12-20T07:23:39.885Z,-1.17
2022-12-20T07:26:44.719Z,-1.03
2022-12-20T07:29:46.970Z,-0.90
2022-12-20T07:32:49.165Z,-1.03
2022-12-20T07:35:54.618Z,-1.03
2022-12-20T07:38:58.155Z,-1.19
2022-12-20T07:42:00.449Z,-1.27
2022-12-20T07:45:02.815Z,-1.25
2022-12-20T07:48:12.397Z,-0.91
2022-12-20T07:51:21.347Z,-1.11
2022-12-20T07:54:35.854Z,-0.90
2022-12-20T07:57:42.068Z,-0.98
2022-12-20T08:00:44.730Z,-0.93
2022-12-20T08:03:49.890Z,-0.85
2022-12-20T08:06:53.298Z,-0.78
2022-12-20T08:09:55.880Z,-1.02
2022-12-20T08:12:58.644Z,-0.90
2022-12-20T08:16:01.362Z,-0.97
2022-12-20T08:19:03.606Z,-0.72
2022-12-20T08:22:06.326Z,-0.72
2022-12-20T08:25:09.070Z,-0.86
2022-12-20T08:28:11.312Z,-0.59
2022-12-20T08:31:13.957Z,-0.72
2022-12-20T08:34:16.303Z,-0.84
2022-12-20T08:37:18.708Z,-0.98
2022-12-20T08:40:21.227Z,-0.94
2022-12-20T08:43:23.527Z,-0.73
2022-12-20T08:46:25.860Z,-0.58
2022-12-20T08:49:28.349Z,-0.72
2022-12-20T08:52:30.655Z,-0.68
2022-12-20T08:55:32.936Z,-0.45
2022-12-20T08:58:35.799Z,-0.58
2022-12-20T09:01:38.159Z,-0.46
2022-12-20T09:04:40.515Z,-0.32
2022-12-20T09:07:42.719Z,-0.26
2022-12-20T09:10:44.981Z,-0.17
2022-12-20T09:13:49.640Z,-0.03
2022-12-20T09:16:51.997Z,0.08
2022-12-20T09:19:55.227Z,0.26
2022-12-20T09:22:59.284Z,0.37
2022-12-20T09:26:04.035Z,0.43
2022-12-20T09:29:06.234Z,0.50
2022-12-20T09:32:08.808Z,0.27
2022-12-20T09:35:10.995Z,0.18
2022-12-20T09:38:13.531Z,0.46
2022-12-20T09:41:41.763Z,0.30
2022-12-20T09:44:44.017Z,0.42
2022-12-20T09:47:46.207Z,0.31
2022-12-20T09:51:09.810Z,0.34
2022-12-20T09:54:21.156Z,0.49
2022-12-20T09:57:32.163Z,0.68
2022-12-20T10:00:53.263Z,0.61
2022-12-20T10:03:57.977Z,0.52
2022-12-20T10:07:03.389Z,0.53
2022-12-20T10:10:30.679Z,0.49
2022-12-20T10:13:38.728Z,0.68
2022-12-20T10:16:54.027Z,0.96
2022-12-20T10:20:15.785Z,0.81
2022-12-20T10:23:33.825Z,0.94
2022-12-20T10:26:36.084Z,1.11
2022-12-20T10:29:38.345Z,1.02
2022-12-20T10:32:44.685Z,1.17
2022-12-20T10:35:47.298Z,1.11
2022-12-20T10:38:52.077Z,1.06
2022-12-20T10:41:54.383Z,1.17
2022-12-20T10:44:57.252Z,1.24
2022-12-20T10:48:01.880Z,1.50
2022-12-20T10:51:15.414Z,1.50
2022-12-20T10:54:24.694Z,1.70
2022-12-20T10:57:28.920Z,1.58
2022-12-20T11:00:32.443Z,1.36
2022-12-20T11:03:50.332Z,1.22
2022-12-20T11:06:52.794Z,1.15
2022-12-20T11:09:57.286Z,1.02
2022-12-20T11:13:01.598Z,1.23
2022-12-20T11:16:04.176Z,1.17
2022-12-20T11:19:22.352Z,1.33
2022-12-20T11:22:37.458Z,1.34
2022-12-20T11:25:46.496Z,1.21
2022-12-20T11:29:10.995Z,1.06
2022-12-20T11:32:28.475Z,1.36
2022-12-20T11:35:56.928Z,1.32
2022-12-20T11:39:04.934Z,1.58
2022-12-20T11:42:26.050Z,1.40
2022-12-20T11:45:30.925Z,1.30
2022-12-20T11:49:02.079Z,1.35
2022-12-20T11:52:22.775Z,1.35
2022-12-20T11:55:34.576Z,1.46
2022-12-20T11:59:02.558Z,1.56
2022-12-20T12:02:14.059Z,1.59
2022-12-20T12:05:29.864Z,1.59
2022-12-20T12:08:42.347Z,1.59
2022-12-20T12:12:09.634Z,1.55
2022-12-20T12:15:16.968Z,1.50
2022-12-20T12:18:25.810Z,1.32
2022-12-20T12:21:39.098Z,1.22
2022-12-20T12:24:47.961Z,1.29
2022-12-20T12:27:50.247Z,1.15
2022-12-20T12:30:57.664Z,1.09
2022-12-20T12:34:21.266Z,1.19
2022-12-20T12:37:54.986Z,1.16
2022-12-20T12:41:15.534Z,1.11
2022-12-20T12:44:20.548Z,0.91
2022-12-20T12:47:38.659Z,1.05
2022-12-20T12:50:46.006Z,1.03
2022-12-20T12:53:53.813Z,1.06
2022-12-20T12:57:14.533Z,1.03
2022-12-20T13:00:51.036Z,1.21
2022-12-20T13:03:53.527Z,1.03
2022-12-20T13:06:57.654Z,0.97
2022-12-20T13:10:01.713Z,1.00
2022-12-20T13:13:13.697Z,1.13
2022-12-20T13:17:02.402Z,1.22
2022-12-20T13:19:54.485Z,1.14
2022-12-20T13:23:12.719Z,1.06
2022-12-20T13:26:50.630Z,1.12
2022-12-20T13:30:10.204Z,1.03
2022-12-20T13:33:42.004Z,0.99
2022-12-20T13:36:44.793Z,1.02
2022-12-20T13:39:47.990Z,0.88
2022-12-20T13:42:51.839Z,0.79
2022-12-20T13:46:03.177Z,0.50
2022-12-20T13:49:06.626Z,0.48
2022-12-20T13:52:13.892Z,0.18
2022-12-20T13:55:31.129Z,0.20
2022-12-20T13:58:36.949Z,0.14
2022-12-20T14:01:48.402Z,0.18
2022-12-20T14:04:54.143Z,-0.14
2022-12-20T14:08:04.264Z,-0.08
2022-12-20T14:11:11.455Z,-0.20
2022-12-20T14:14:14.290Z,-0.27
2022-12-20T14:17:29.778Z,-0.27
2022-12-20T14:20:33.995Z,-0.12
2022-12-20T14:23:41.979Z,-0.21
2022-12-20T14:26:48.123Z,-0.36
2022-12-20T14:29:53.103Z,-0.26
2022-12-20T14:32:56.792Z,-0.35
2022-12-20T14:36:16.599Z,-0.29
2022-12-20T14:39:32.586Z,-0.29
2022-12-20T14:42:37.217Z,-0.35
2022-12-20T14:45:39.512Z,-0.38
2022-12-20T14:48:41.688Z,-0.54
2022-12-20T14:51:44.046Z,-0.48
2022-12-20T14:55:13.437Z,-0.68
2022-12-20T14:58:30.259Z,-0.51
2022-12-20T15:01:37.097Z,-0.47
2022-12-20T15:04:42.292Z,-0.60
2022-12-20T15:07:44.501Z,-0.68
2022-12-20T15:10:52.528Z,-0.58
2022-12-20T15:13:55.648Z,-0.68
2022-12-20T15:16:58.443Z,-0.83
2022-12-20T15:20:00.979Z,-0.72
2022-12-20T15:23:03.227Z,-0.83
2022-12-20T15:26:05.599Z,-0.82
2022-12-20T15:29:16.640Z,-0.73
2022-12-20T15:32:30.898Z,-0.66
2022-12-20T15:35:33.674Z,-0.89
2022-12-20T15:42:00.528Z,-0.96
2022-12-20T15:45:03.004Z,-1.11
2022-12-20T15:48:05.536Z,-0.94
2022-12-20T15:51:19.290Z,-1.04
2022-12-20T15:54:27.514Z,-0.82
2022-12-20T15:57:30.933Z,-0.80
2022-12-20T16:00:33.216Z,-0.90
2022-12-20T16:03:35.554Z,-0.79
2022-12-20T16:06:37.990Z,-0.77
2022-12-20T16:09:40.583Z,-0.76
2022-12-20T16:12:42.795Z,-0.84
2022-12-20T16:15:45.099Z,-0.78
2022-12-20T16:18:47.496Z,-0.99
2022-12-20T16:21:51.395Z,-0.84
2022-12-20T16:24:53.572Z,-0.77
2022-12-20T16:27:56.468Z,-0.90
2022-12-20T16:30:58.800Z,-0.89
2022-12-20T16:34:03.197Z,-0.95
2022-12-20T16:37:06.327Z,-0.89
2022-12-20T16:40:09.267Z,-0.85
2022-12-20T16:43:14.931Z,-0.94
2022-12-20T16:46:19.244Z,-1.00
2022-12-20T16:49:21.595Z,-0.93
2022-12-20T16:52:23.874Z,-0.92
2022-12-20T16:55:27.365Z,-0.93
2022-12-20T16:59:00.049Z,-0.97
2022-12-20T17:01:53.544Z,-0.95
2022-12-20T17:04:56.402Z,-0.86
2022-12-20T17:07:58.718Z,-0.84
2022-12-20T17:11:00.935Z,-0.83
2022-12-20T17:14:08.747Z,-0.79
2022-12-20T17:17:15.885Z,-0.89
2022-12-20T17:20:19.549Z,-0.74
2022-12-20T17:26:41.501Z,-0.80
2022-12-20T17:29:44.152Z,-0.91
2022-12-20T17:32:46.483Z,-0.89
2022-12-20T17:35:48.669Z,-0.88
2022-12-20T17:38:51.057Z,-0.79
2022-12-20T17:41:55.029Z,-0.93
2022-12-20T17:44:57.231Z,-0.90
2022-12-20T17:47:59.726Z,-0.93
2022-12-20T17:51:02.013Z,-0.98
2022-12-20T17:54:04.454Z,-0.88
2022-12-20T17:57:11.949Z,-1.03
2022-12-20T18:00:24.622Z,-0.94
2022-12-20T18:04:02.346Z,-0.87
2022-12-20T18:06:52.362Z,-0.88
2022-12-20T18:09:54.667Z,-0.79
2022-12-20T18:12:56.935Z,-0.75
2022-12-20T18:15:59.323Z,-0.87
2022-12-20T18:19:02.314Z,-0.91
2022-12-20T18:22:05.003Z,-0.83
2022-12-20T18:25:08.633Z,-0.79
2022-12-20T18:28:11.017Z,-0.83
2022-12-20T18:31:21.694Z,-0.94
2022-12-20T18:34:24.439Z,-0.93
2022-12-20T18:37:26.890Z,-1.06
2022-12-20T18:40:29.242Z,-0.98
2022-12-20T18:43:32.560Z,-1.06
2022-12-20T18:46:34.919Z,-0.98
2022-12-20T18:49:37.631Z,-1.06
2022-12-20T18:52:42.419Z,-1.04
2022-12-20T18:55:46.232Z,-0.98
2022-12-20T18:58:48.763Z,-1.02
2022-12-20T19:01:52.718Z,-1.01
2022-12-20T19:04:55.048Z,-0.94
2022-12-20T19:07:57.337Z,-0.93
2022-12-20T19:11:11.517Z,-0.88
2022-12-20T19:14:13.828Z,-1.10
2022-12-20T19:17:16.308Z,-1.17
2022-12-20T19:20:19.859Z,-1.07
2022-12-20T19:23:22.569Z,-1.13
2022-12-20T19:26:30.488Z,-1.19
2022-12-20T19:29:32.887Z,-1.09
2022-12-20T19:32:35.507Z,-1.03
2022-12-20T19:35:55.874Z,-1.02
2022-12-20T19:39:00.615Z,-1.17
2022-12-20T19:42:24.085Z,-1.10
2022-12-20T19:45:26.417Z,-1.26
2022-12-20T19:48:29.011Z,-1.19
2022-12-20T19:51:31.633Z,-1.37
2022-12-20T19:54:35.549Z,-1.31
2022-12-20T19:57:38.395Z,-1.37
2022-12-20T20:00:40.735Z,-1.37
2022-12-20T20:03:43.141Z,-1.34
2022-12-20T20:06:45.452Z,-1.27
2022-12-20T20:09:49.031Z,-1.27
2022-12-20T20:12:51.621Z,-1.38
2022-12-20T20:15:56.997Z,-1.30
2022-12-20T20:18:59.669Z,-1.31
2022-12-20T20:22:01.983Z,-1.04
2022-12-20T20:25:04.601Z,-1.13
2022-12-20T20:28:07.156Z,-1.11
2022-12-20T20:31:10.923Z,-1.12
2022-12-20T20:34:13.325Z,-1.10
2022-12-20T20:37:15.887Z,-1.11
2022-12-20T20:40:18.331Z,-1.13
2022-12-20T20:43:21.530Z,-1.00
2022-12-20T20:46:24.177Z,-1.08
2022-12-20T20:49:26.488Z,-1.01
2022-12-20T20:52:28.697Z,-1.32
2022-12-20T20:55:31.172Z,-1.14
2022-12-20T20:58:34.177Z,-1.08
2022-12-20T21:01:37.645Z,-1.09
2022-12-20T21:04:40.003Z,-1.19
2022-12-20T21:07:42.180Z,-1.20
2022-12-20T21:10:44.803Z,-1.05
2022-12-20T21:13:47.057Z,-1.08
2022-12-20T21:16:49.303Z,-1.18
2022-12-20T21:19:51.502Z,-1.18
2022-12-20T21:22:53.709Z,-1.09
2022-12-20T21:25:57.513Z,-1.14
2022-12-20T21:29:00.057Z,-0.99
2022-12-20T21:32:02.321Z,-0.98
2022-12-20T21:35:04.698Z,-1.00
2022-12-20T21:38:06.938Z,-0.94
2022-12-20T21:41:13.297Z,-1.01
2022-12-20T21:44:15.717Z,-0.90
2022-12-20T21:47:17.935Z,-0.94
2022-12-20T21:50:20.201Z,-0.93
2022-12-20T21:53:22.379Z,-1.00
2022-12-20T21:56:26.453Z,-0.93
2022-12-20T21:59:28.700Z,-0.99
2022-12-20T22:02:30.982Z,-0.82
2022-12-20T22:05:33.255Z,-0.88
2022-12-20T22:08:35.755Z,-1.14
2022-12-20T22:11:38.764Z,-0.99
2022-12-20T22:14:41.316Z,-1.02
2022-12-20T22:17:43.507Z,-0.91
2022-12-20T22:20:47.144Z,-0.91
2022-12-20T22:23:50.095Z,-0.84
2022-12-20T22:26:52.351Z,-0.92
2022-12-20T22:29:54.537Z,-0.83
2022-12-20T22:32:56.761Z,-0.90
2022-12-20T22:36:02.431Z,-0.97
2022-12-20T22:39:04.829Z,-0.84
2022-12-20T22:42:07.046Z,-0.93
2022-12-20T22:45:09.916Z,-0.94
2022-12-20T22:48:12.137Z,-0.93
2022-12-20T22:51:19.887Z,-0.86
2022-12-20T22:54:22.615Z,-0.83
2022-12-20T22:57:24.897Z,-0.85
2022-12-20T23:00:27.075Z,-0.82
2022-12-20T23:03:30.081Z,-0.84
2022-12-20T23:06:32.417Z,-0.83
2022-12-20T23:09:34.643Z,-0.78
2022-12-20T23:12:55.284Z,-0.87
2022-12-20T23:15:57.551Z,-0.76
2022-12-20T23:19:01.705Z,-0.80
2022-12-20T23:22:22.595Z,-0.82
2022-12-20T23:25:25.546Z,-0.86
2022-12-20T23:28:27.720Z,-0.79
2022-12-20T23:31:30.946Z,-0.81
2022-12-20T23:34:33.178Z,-0.76
2022-12-20T23:37:35.476Z,-0.69
2022-12-20T23:40:40.700Z,-0.68
2022-12-20T23:43:43.125Z,-0.72
2022-12-20T23:46:45.487Z,-0.56
2022-12-20T23:49:47.670Z,-0.44
2022-12-20T23:52:49.810Z,-0.54
2022-12-20T23:56:10.256Z,-0.50
2022-12-20T23:59:12.470Z,-0.38
